Disclaimer

Please do not use the information listed here in-flight or in-navigation, as they are not provided to us by the airports but are provided by volunteers, so they might be outdated.

Search


Regions


Airport information page

Radio informations:
Ground (GND) - 121.75 MHz

Airport informations:
Latitude: 28° 11' 20.97" N
Longitude: 113° 13' 10.68" E
Elevation: 217 feet - 66 meters
Operating hours: N/A
Operating agency: Civil government, landing fees and diplomatic clearance may be required
Timezone: UTC+8
Fuel: N/A

Runway information:
18/36 - 8530 x 148 feet< - >2600 x 45 meters

Recent METARs:
ZGHA 210000Z 31004MPS 2000 -RA BR SCT030 11/10 Q1024 BECMG TL0100 3500
ZGHA 210000Z 31004MPS 2000 -RA BR SCT030 11/10 Q1024 BECMG TL0100 3500
ZGHA 210100Z 32005MPS 2000 -RA BR SCT007 OVC040 11/10 Q1026 BECMG TL0250 3000

Airport on the map: